Brighton Township, Michigan
Current Conditions -  °F | °C
As of 2:55 AM on Saturday 25 Oct 2014 (Local Time) from KOZW Reporting Station
Haze Haze  
Wind Chill: 44°   Ceiling: Unl
Heat Index: 46°   Visibility: 3mi
Dew Point: 46°   Wind: 5mph
Humidity: 98%   Direction: 200°SSW
Pressure: 29.91"   Gusts: NA
Location:  42.5333°N, 83.7735°W
Report Text: KOZW 250655Z AUTO 20004KT 3SM BR CLR 08/08 A2991 RMK AO2 T00780075
Loading
Personal Weather Stations






























Interactive Weather Map
Tropical Storm Tracking
New forecast layout! Learn more

10-Day Weather Forecast

Advertisements
Track Severe Weather on mobile